createdAt,value
2019-02-09T00:00:00.633Z,74.53
2019-02-09T00:01:11.444Z,82.88
2019-02-09T00:02:17.845Z,86.75
2019-02-09T00:03:24.286Z,83.45
2019-02-09T00:04:31.455Z,82.05
2019-02-09T00:05:38.198Z,82.37
2019-02-09T00:06:45.783Z,77.80
2019-02-09T00:07:52.155Z,79.42
2019-02-09T00:08:58.758Z,83.47
2019-02-09T00:10:06.625Z,76.62
2019-02-09T00:11:13.126Z,85.55
2019-02-09T00:12:19.805Z,81.53
2019-02-09T00:13:26.111Z,80.97
2019-02-09T00:14:33.072Z,86.82
2019-02-09T00:15:39.546Z,75.25
2019-02-09T00:16:45.974Z,82.12
2019-02-09T00:17:52.192Z,81.25
2019-02-09T00:18:58.417Z,86.30
2019-02-09T00:20:04.826Z,78.10
2019-02-09T00:21:11.092Z,77.42
2019-02-09T00:22:17.372Z,85.40
2019-02-09T00:23:23.711Z,79.03
2019-02-09T00:24:30.021Z,77.05
2019-02-09T00:25:36.642Z,82.15
2019-02-09T00:26:43.061Z,79.95
2019-02-09T00:27:49.602Z,89.05
2019-02-09T00:28:56.104Z,74.75
2019-02-09T00:30:02.623Z,85.10
2019-02-09T00:31:08.997Z,85.47
2019-02-09T00:32:15.535Z,85.70
2019-02-09T00:33:21.955Z,79.47
2019-02-09T00:34:28.438Z,85.10
2019-02-09T00:35:34.951Z,87.22
2019-02-09T00:36:41.305Z,82.50
2019-02-09T00:37:47.730Z,77.75
2019-02-09T00:38:54.228Z,81.40
2019-02-09T00:40:00.353Z,85.62
2019-02-09T00:41:06.586Z,78.95
2019-02-09T00:42:12.854Z,88.97
2019-02-09T00:43:19.211Z,83.47
2019-02-09T00:44:25.543Z,83.70
2019-02-09T00:45:31.955Z,90.00
2019-02-09T00:46:38.382Z,81.65
2019-02-09T00:47:44.728Z,82.33
2019-02-09T00:48:51.086Z,84.67
2019-02-09T00:49:57.670Z,87.85
2019-02-09T00:51:03.994Z,87.12
2019-02-09T00:52:10.241Z,90.72
2019-02-09T00:53:16.631Z,77.92
2019-02-09T00:54:23.083Z,89.85
2019-02-09T00:55:29.652Z,81.95
2019-02-09T00:56:35.971Z,87.92
2019-02-09T00:57:42.334Z,81.25
2019-02-09T00:58:48.704Z,83.45
2019-02-09T00:59:54.996Z,86.12
2019-02-09T01:01:01.432Z,86.92
2019-02-09T01:02:07.883Z,86.35
2019-02-09T01:03:14.838Z,80.38
2019-02-09T01:04:21.305Z,84.90
2019-02-09T01:05:30.887Z,85.95
2019-02-09T01:06:37.262Z,84.13
2019-02-09T01:07:43.643Z,88.30
2019-02-09T01:08:49.987Z,85.92
2019-02-09T01:09:56.455Z,87.47
2019-02-09T01:11:04.206Z,76.33
2019-02-09T01:12:10.723Z,80.28
2019-02-09T01:13:17.084Z,87.50
2019-02-09T01:14:23.420Z,87.47
2019-02-09T01:15:29.866Z,82.17
2019-02-09T01:16:36.135Z,76.60
2019-02-09T01:17:42.375Z,83.82
2019-02-09T01:18:48.703Z,85.47
2019-02-09T01:19:55.087Z,86.57
2019-02-09T01:21:01.377Z,79.90
2019-02-09T01:22:07.695Z,82.80
2019-02-09T01:23:14.168Z,91.75
2019-02-09T01:24:20.674Z,79.97
2019-02-09T01:25:27.030Z,84.95
2019-02-09T01:26:33.242Z,80.07
2019-02-09T01:27:39.503Z,82.12
2019-02-09T01:28:45.739Z,79.15
2019-02-09T01:29:52.101Z,85.55
2019-02-09T01:30:58.372Z,80.32
2019-02-09T01:32:06.143Z,77.27
2019-02-09T01:33:12.513Z,79.03
2019-02-09T01:34:18.755Z,79.80
2019-02-09T01:35:25.434Z,75.35
2019-02-09T01:36:31.776Z,78.20
2019-02-09T01:37:38.238Z,79.00
2019-02-09T01:38:44.541Z,78.95
2019-02-09T01:39:50.895Z,86.47
2019-02-09T01:40:57.649Z,82.00
2019-02-09T01:42:04.254Z,77.12
2019-02-09T01:43:10.614Z,70.75
2019-02-09T01:44:18.301Z,77.58
2019-02-09T01:45:29.201Z,76.33
2019-02-09T01:46:35.751Z,81.47
2019-02-09T01:47:41.974Z,76.20
2019-02-09T01:48:48.407Z,78.62
2019-02-09T01:49:54.846Z,75.28
2019-02-09T01:51:01.132Z,79.92
2019-02-09T01:52:07.630Z,75.28
2019-02-09T01:53:14.053Z,78.83
2019-02-09T01:54:20.497Z,75.47
2019-02-09T01:55:28.320Z,71.07
2019-02-09T01:56:34.777Z,74.80
2019-02-09T01:57:41.315Z,76.33
2019-02-09T01:58:47.566Z,73.42
2019-02-09T01:59:54.064Z,79.32
2019-02-09T02:01:02.599Z,72.80
2019-02-09T02:02:09.028Z,75.67
2019-02-09T02:03:15.491Z,70.95
2019-02-09T02:04:21.897Z,72.58
2019-02-09T02:05:28.555Z,73.47
2019-02-09T02:06:35.123Z,74.50
2019-02-09T02:07:41.592Z,67.32
2019-02-09T02:08:48.045Z,73.10
2019-02-09T02:09:54.413Z,69.10
2019-02-09T02:11:00.853Z,77.00
2019-02-09T02:12:07.742Z,74.97
2019-02-09T02:13:14.235Z,66.12
2019-02-09T02:14:20.613Z,74.70
2019-02-09T02:15:27.742Z,68.62
2019-02-09T02:16:34.195Z,69.60
2019-02-09T02:17:40.518Z,65.47
2019-02-09T02:18:46.900Z,70.55
2019-02-09T02:19:53.294Z,72.70
2019-02-09T02:20:59.672Z,69.82
2019-02-09T02:22:06.073Z,71.07
2019-02-09T02:23:12.400Z,63.17
2019-02-09T02:24:18.791Z,69.05
2019-02-09T02:25:25.421Z,65.42
2019-02-09T02:26:31.870Z,69.85
2019-02-09T02:27:38.253Z,66.25
2019-02-09T02:28:44.631Z,72.37
2019-02-09T02:29:51.080Z,61.68
2019-02-09T02:30:57.517Z,63.90
2019-02-09T02:32:03.828Z,65.28
2019-02-09T02:33:10.320Z,65.75
2019-02-09T02:34:17.104Z,68.57
2019-02-09T02:35:23.547Z,70.28
2019-02-09T02:36:30.777Z,70.32
2019-02-09T02:37:37.152Z,64.42
2019-02-09T02:38:43.558Z,70.90
2019-02-09T02:39:49.850Z,70.12
2019-02-09T02:40:56.153Z,68.17
2019-02-09T02:42:02.571Z,68.22
2019-02-09T02:43:08.804Z,65.67
2019-02-09T02:44:15.110Z,71.15
2019-02-09T02:45:21.973Z,66.02
2019-02-09T02:46:28.466Z,59.88
2019-02-09T02:47:34.913Z,64.00
2019-02-09T02:48:41.342Z,62.90
2019-02-09T02:49:47.567Z,70.60
2019-02-09T02:50:54.096Z,67.67
2019-02-09T02:52:00.451Z,65.67
2019-02-09T02:53:06.802Z,64.00
2019-02-09T02:54:13.141Z,67.70
2019-02-09T02:55:21.551Z,70.95
2019-02-09T02:56:27.825Z,67.08
2019-02-09T02:57:34.058Z,69.03
2019-02-09T02:58:40.505Z,69.90
2019-02-09T02:59:46.962Z,72.25
2019-02-09T03:00:53.326Z,72.87
2019-02-09T03:01:59.582Z,75.08
2019-02-09T03:03:06.411Z,73.10
2019-02-09T03:04:13.940Z,69.90
2019-02-09T03:05:21.492Z,71.80
2019-02-09T03:06:27.873Z,73.20
2019-02-09T03:07:34.100Z,74.40
2019-02-09T03:08:40.342Z,74.62
2019-02-09T03:09:46.734Z,72.47
2019-02-09T03:10:52.989Z,69.45
2019-02-09T03:11:59.425Z,69.77
2019-02-09T03:13:06.057Z,70.45
2019-02-09T03:14:12.443Z,65.45
2019-02-09T03:15:27.567Z,71.85
2019-02-09T03:16:34.202Z,77.00
2019-02-09T03:17:40.562Z,63.25
2019-02-09T03:18:46.990Z,64.65
2019-02-09T03:19:53.339Z,65.45
2019-02-09T03:20:59.654Z,64.92
2019-02-09T03:22:06.596Z,62.93
2019-02-09T03:23:13.117Z,64.90
2019-02-09T03:24:19.499Z,64.05
2019-02-09T03:25:27.699Z,67.17
2019-02-09T03:26:34.149Z,65.35
2019-02-09T03:27:40.580Z,60.45
2019-02-09T03:28:46.959Z,67.87
2019-02-09T03:29:53.322Z,61.35
2019-02-09T03:30:59.554Z,61.50
2019-02-09T03:32:06.098Z,62.27
2019-02-09T03:33:12.702Z,63.58
2019-02-09T03:34:19.098Z,61.05
2019-02-09T03:35:25.610Z,58.65
2019-02-09T03:36:32.097Z,58.08
2019-02-09T03:37:38.624Z,58.87
2019-02-09T03:38:45.073Z,65.30
2019-02-09T03:39:51.553Z,56.25
2019-02-09T03:40:57.865Z,54.48
2019-02-09T03:42:04.538Z,62.15
2019-02-09T03:43:10.876Z,56.95
2019-02-09T03:44:17.214Z,55.60
2019-02-09T03:45:28.431Z,56.53
2019-02-09T03:46:34.766Z,55.38
2019-02-09T03:47:41.104Z,53.75
2019-02-09T03:48:47.586Z,58.40
2019-02-09T03:49:53.993Z,64.03
2019-02-09T03:51:00.515Z,56.13
2019-02-09T03:52:06.885Z,51.28
2019-02-09T03:53:13.215Z,60.43
2019-02-09T03:54:19.605Z,54.35
2019-02-09T03:55:25.998Z,52.60
2019-02-09T03:56:32.409Z,56.45
2019-02-09T03:57:38.714Z,60.35
2019-02-09T03:58:45.005Z,59.53
2019-02-09T03:59:51.591Z,56.00
2019-02-09T04:00:57.985Z,51.20
2019-02-09T04:02:04.450Z,56.90
2019-02-09T04:03:11.048Z,53.17
2019-02-09T04:04:17.285Z,59.53
2019-02-09T04:05:23.854Z,59.33
2019-02-09T04:06:30.210Z,50.98
2019-02-09T04:07:36.633Z,51.68
2019-02-09T04:08:43.249Z,55.65
2019-02-09T04:09:49.543Z,54.38
2019-02-09T04:10:55.973Z,54.63
2019-02-09T04:12:02.375Z,51.50
2019-02-09T04:13:08.847Z,51.08
2019-02-09T04:14:15.109Z,51.48
2019-02-09T04:15:22.794Z,50.28
2019-02-09T04:16:29.413Z,52.43
2019-02-09T04:17:35.805Z,51.60
2019-02-09T04:18:42.329Z,51.80
2019-02-09T04:19:48.603Z,47.10
2019-02-09T04:20:54.853Z,51.37
2019-02-09T04:22:01.138Z,50.63
2019-02-09T04:23:07.596Z,47.55
2019-02-09T04:24:13.922Z,59.18
2019-02-09T04:25:20.960Z,51.73
2019-02-09T04:26:27.460Z,50.78
2019-02-09T04:27:33.785Z,47.20
2019-02-09T04:28:40.732Z,46.70
2019-02-09T04:29:47.278Z,50.23
2019-02-09T04:30:53.515Z,48.10
2019-02-09T04:32:00.000Z,58.20
2019-02-09T04:33:06.510Z,45.00
2019-02-09T04:34:13.100Z,47.10
2019-02-09T04:35:19.519Z,44.38
2019-02-09T04:36:26.889Z,44.40
2019-02-09T04:37:33.170Z,42.43
2019-02-09T04:38:39.508Z,50.15
2019-02-09T04:39:46.031Z,45.73
2019-02-09T04:40:52.264Z,41.95
2019-02-09T04:41:58.744Z,43.92
2019-02-09T04:43:04.968Z,48.58
2019-02-09T04:44:11.223Z,45.33
2019-02-09T04:45:17.778Z,41.42
2019-02-09T04:46:24.069Z,42.15
2019-02-09T04:47:30.595Z,43.68
2019-02-09T04:48:37.051Z,38.67
2019-02-09T04:49:43.406Z,43.85
2019-02-09T04:50:49.746Z,43.95
2019-02-09T04:51:56.094Z,44.90
2019-02-09T04:53:02.692Z,37.30
2019-02-09T04:54:09.233Z,44.33
2019-02-09T04:55:20.474Z,40.60
2019-02-09T04:56:26.643Z,40.03
2019-02-09T04:57:32.920Z,39.88
2019-02-09T04:58:39.800Z,46.02
2019-02-09T04:59:46.288Z,38.90
2019-02-09T05:00:53.518Z,39.92
2019-02-09T05:01:59.841Z,44.10
2019-02-09T05:03:06.520Z,41.30
2019-02-09T05:04:12.863Z,40.15
2019-02-09T05:05:19.344Z,41.83
2019-02-09T05:06:25.777Z,38.40
2019-02-09T05:07:32.141Z,48.05
2019-02-09T05:08:38.402Z,43.87
2019-02-09T05:09:44.862Z,47.10
2019-02-09T05:10:51.231Z,43.08
2019-02-09T05:11:57.487Z,39.65
2019-02-09T05:13:04.045Z,43.40
2019-02-09T05:14:10.682Z,44.40
2019-02-09T05:15:17.782Z,42.50
2019-02-09T05:16:24.120Z,37.23
2019-02-09T05:17:30.570Z,43.02
2019-02-09T05:18:38.255Z,38.05
2019-02-09T05:19:44.594Z,42.43
2019-02-09T05:20:51.114Z,35.52
2019-02-09T05:21:57.404Z,36.83
2019-02-09T05:23:03.770Z,36.48
2019-02-09T05:24:10.151Z,39.63
2019-02-09T05:25:17.037Z,41.35
2019-02-09T05:26:23.697Z,42.67
2019-02-09T05:27:31.579Z,44.40
2019-02-09T05:28:37.938Z,35.98
2019-02-09T05:29:44.305Z,33.85
2019-02-09T05:30:50.901Z,38.05
2019-02-09T05:31:57.437Z,41.25
2019-02-09T05:33:04.077Z,35.95
2019-02-09T05:34:10.631Z,40.15
2019-02-09T05:35:17.596Z,41.10
2019-02-09T05:36:23.975Z,38.45
2019-02-09T05:37:30.402Z,42.75
2019-02-09T05:38:37.556Z,35.38
2019-02-09T05:39:43.839Z,38.00
2019-02-09T05:40:50.312Z,37.42
2019-02-09T05:41:57.373Z,41.63
2019-02-09T05:43:03.674Z,41.02
2019-02-09T05:44:09.940Z,42.33
2019-02-09T05:45:20.680Z,44.03
2019-02-09T05:46:27.310Z,40.28
2019-02-09T05:47:33.831Z,43.33
2019-02-09T05:48:40.207Z,42.90
2019-02-09T05:49:46.544Z,39.42
2019-02-09T05:50:53.248Z,39.30
2019-02-09T05:51:59.454Z,40.40
2019-02-09T05:53:05.975Z,40.73
2019-02-09T05:54:12.294Z,41.92
2019-02-09T05:55:19.043Z,35.88
2019-02-09T05:56:25.628Z,39.45
2019-02-09T05:57:31.972Z,37.05
2019-02-09T05:58:38.442Z,39.70
2019-02-09T05:59:44.711Z,40.00
2019-02-09T06:00:51.164Z,35.83
2019-02-09T06:01:57.745Z,39.10
2019-02-09T06:03:03.985Z,44.40
2019-02-09T06:04:10.416Z,42.13
2019-02-09T06:05:16.966Z,36.73
2019-02-09T06:06:23.704Z,39.25
2019-02-09T06:07:30.155Z,35.10
2019-02-09T06:08:36.457Z,34.88
2019-02-09T06:09:42.826Z,42.55
2019-02-09T06:10:49.110Z,47.70
2019-02-09T06:11:55.533Z,36.23
2019-02-09T06:13:01.802Z,37.53
2019-02-09T06:14:08.127Z,39.38
2019-02-09T06:15:15.993Z,41.75
2019-02-09T06:16:22.283Z,37.20
2019-02-09T06:17:28.576Z,35.63
2019-02-09T06:18:34.874Z,43.13
2019-02-09T06:19:41.142Z,35.52
2019-02-09T06:20:47.522Z,36.23
2019-02-09T06:21:54.148Z,39.15
2019-02-09T06:23:00.626Z,35.08
2019-02-09T06:24:07.291Z,35.90
2019-02-09T06:25:13.874Z,32.83
2019-02-09T06:26:20.046Z,45.55
2019-02-09T06:27:26.423Z,37.90
2019-02-09T06:28:32.933Z,35.40
2019-02-09T06:29:39.278Z,35.08
2019-02-09T06:30:45.819Z,36.60
2019-02-09T06:31:53.313Z,33.58
2019-02-09T06:33:00.179Z,37.28
2019-02-09T06:34:06.739Z,35.95
2019-02-09T06:35:13.406Z,39.73
2019-02-09T06:36:19.837Z,32.05
2019-02-09T06:37:26.429Z,32.58
2019-02-09T06:38:32.812Z,32.08
2019-02-09T06:39:39.247Z,34.67
2019-02-09T06:40:45.591Z,34.45
2019-02-09T06:41:51.802Z,30.90
2019-02-09T06:42:58.404Z,28.80
2019-02-09T06:44:04.663Z,34.55
2019-02-09T06:45:13.912Z,34.90
2019-02-09T06:46:20.129Z,37.05
2019-02-09T06:47:26.515Z,31.45
2019-02-09T06:48:32.917Z,34.05
2019-02-09T06:49:39.185Z,33.55
2019-02-09T06:50:46.653Z,33.80
2019-02-09T06:51:53.076Z,34.53
2019-02-09T06:52:59.445Z,32.45
2019-02-09T06:54:06.398Z,33.80
2019-02-09T06:55:15.203Z,30.88
2019-02-09T06:56:21.688Z,28.80
2019-02-09T06:57:28.237Z,30.05
2019-02-09T06:58:34.910Z,31.60
2019-02-09T06:59:41.932Z,33.30
2019-02-09T07:00:48.405Z,31.27
2019-02-09T07:01:54.799Z,33.08
2019-02-09T07:03:01.252Z,32.05
2019-02-09T07:04:07.779Z,32.95
2019-02-09T07:05:16.970Z,30.25
2019-02-09T07:06:24.775Z,30.32
2019-02-09T07:07:31.437Z,31.68
2019-02-09T07:08:38.096Z,33.45
2019-02-09T07:09:44.377Z,32.48
2019-02-09T07:10:50.825Z,34.48
2019-02-09T07:11:57.442Z,31.60
2019-02-09T07:13:04.052Z,32.48
2019-02-09T07:14:12.277Z,32.33
2019-02-09T07:15:23.151Z,33.35
2019-02-09T07:16:29.845Z,38.92
2019-02-09T07:17:45.697Z,30.88
2019-02-09T07:18:52.380Z,37.03
2019-02-09T07:20:01.310Z,33.50
2019-02-09T07:21:09.842Z,37.58
2019-02-09T07:22:16.449Z,33.88
2019-02-09T07:23:22.751Z,35.15
2019-02-09T07:24:29.138Z,31.10
2019-02-09T07:25:36.565Z,34.75
2019-02-09T07:26:43.086Z,34.18
2019-02-09T07:27:49.503Z,34.40
2019-02-09T07:28:56.098Z,36.48
2019-02-09T07:30:03.294Z,33.18
2019-02-09T07:31:09.926Z,33.35
2019-02-09T07:32:16.475Z,31.07
2019-02-09T07:33:22.873Z,35.90
2019-02-09T07:34:29.386Z,37.88
2019-02-09T07:35:35.751Z,33.13
2019-02-09T07:36:42.183Z,31.37
2019-02-09T07:37:49.444Z,32.28
2019-02-09T07:38:56.329Z,35.38
2019-02-09T07:40:02.916Z,34.18
2019-02-09T07:41:09.119Z,28.87
2019-02-09T07:42:15.685Z,38.17
2019-02-09T07:43:22.049Z,35.55
2019-02-09T07:44:30.213Z,38.78
2019-02-09T07:45:36.845Z,34.67
2019-02-09T07:46:43.241Z,34.58
2019-02-09T07:47:49.804Z,34.23
2019-02-09T07:48:56.255Z,34.05
2019-02-09T07:50:02.407Z,35.08
2019-02-09T07:51:08.841Z,37.30
2019-02-09T07:52:15.475Z,38.25
2019-02-09T07:53:21.932Z,38.00
2019-02-09T07:54:29.805Z,39.75
2019-02-09T07:55:37.258Z,32.03
2019-02-09T07:56:43.651Z,39.48
2019-02-09T07:57:50.926Z,41.98
2019-02-09T07:58:57.017Z,34.45
2019-02-09T08:00:03.083Z,34.60
2019-02-09T08:01:09.440Z,36.83
2019-02-09T08:02:15.785Z,36.50
2019-02-09T08:03:22.154Z,35.05
2019-02-09T08:04:28.548Z,36.00
2019-02-09T08:05:35.314Z,35.68
2019-02-09T08:06:41.577Z,32.95
2019-02-09T08:07:48.114Z,34.08
2019-02-09T08:08:54.674Z,34.15
2019-02-09T08:10:01.015Z,34.58
2019-02-09T08:11:09.104Z,37.40
2019-02-09T08:12:16.096Z,34.48
2019-02-09T08:13:22.670Z,30.97
2019-02-09T08:14:29.080Z,38.33
2019-02-09T08:15:35.894Z,39.08
2019-02-09T08:16:42.243Z,35.03
2019-02-09T08:17:48.893Z,39.38
2019-02-09T08:18:55.327Z,32.58
2019-02-09T08:20:02.242Z,36.48
2019-02-09T08:21:08.654Z,36.42
2019-02-09T08:22:16.111Z,35.17
2019-02-09T08:23:22.429Z,36.58
2019-02-09T08:24:28.917Z,32.60
2019-02-09T08:25:36.264Z,30.70
2019-02-09T08:26:43.017Z,31.33
2019-02-09T08:27:49.506Z,35.17
2019-02-09T08:28:56.015Z,34.10
2019-02-09T08:30:02.422Z,33.33
2019-02-09T08:31:08.871Z,29.63
2019-02-09T08:32:15.511Z,28.23
2019-02-09T08:33:22.053Z,32.38
2019-02-09T08:34:28.650Z,32.80
2019-02-09T08:35:34.993Z,29.40
2019-02-09T08:36:41.621Z,32.65
2019-02-09T08:37:48.324Z,36.95
2019-02-09T08:38:54.755Z,31.05
2019-02-09T08:40:01.342Z,32.50
2019-02-09T08:41:08.892Z,30.77
2019-02-09T08:42:17.438Z,35.03
2019-02-09T08:43:24.415Z,33.28
2019-02-09T08:44:30.769Z,31.48
2019-02-09T08:45:37.626Z,34.73
2019-02-09T08:46:44.113Z,34.55
2019-02-09T08:47:51.430Z,31.30
2019-02-09T08:48:57.892Z,38.50
2019-02-09T08:50:05.154Z,37.73
2019-02-09T08:51:13.673Z,34.85
2019-02-09T08:52:19.984Z,35.55
2019-02-09T08:53:26.252Z,33.53
2019-02-09T08:54:32.986Z,34.05
2019-02-09T08:55:39.514Z,36.70
2019-02-09T08:56:45.885Z,33.67
2019-02-09T08:57:52.211Z,38.88
2019-02-09T08:58:58.532Z,40.10
2019-02-09T09:00:06.943Z,35.35
2019-02-09T09:01:13.270Z,40.67
2019-02-09T09:02:20.812Z,36.35
2019-02-09T09:03:27.632Z,32.67
2019-02-09T09:04:34.307Z,34.05
2019-02-09T09:05:40.799Z,35.52
2019-02-09T09:06:47.232Z,37.67
2019-02-09T09:07:53.678Z,36.20
2019-02-09T09:09:00.005Z,34.18
2019-02-09T09:10:07.239Z,34.03
2019-02-09T09:11:14.121Z,33.80
2019-02-09T09:12:20.398Z,34.15
2019-02-09T09:13:26.965Z,35.90
2019-02-09T09:14:33.505Z,30.27
2019-02-09T09:15:42.758Z,31.05
2019-02-09T09:16:49.138Z,26.05
2019-02-09T09:17:55.427Z,33.67
2019-02-09T09:19:01.973Z,31.65
2019-02-09T09:20:13.662Z,33.98
2019-02-09T09:21:20.150Z,32.53
2019-02-09T09:22:26.394Z,30.55
2019-02-09T09:23:32.880Z,29.18
2019-02-09T09:24:39.238Z,31.17
2019-02-09T09:25:45.627Z,31.50
2019-02-09T09:26:52.034Z,25.30
2019-02-09T09:27:58.509Z,33.25
2019-02-09T09:29:04.864Z,36.33
2019-02-09T09:30:13.219Z,33.60
2019-02-09T09:31:19.610Z,30.85
2019-02-09T09:32:28.857Z,32.23
2019-02-09T09:33:35.465Z,33.48
2019-02-09T09:34:42.380Z,29.70
2019-02-09T09:35:48.625Z,34.78
2019-02-09T09:36:54.997Z,31.82
2019-02-09T09:38:01.563Z,33.02
2019-02-09T09:39:09.973Z,28.23
2019-02-09T09:40:19.693Z,33.48
2019-02-09T09:41:26.096Z,33.18
2019-02-09T09:42:32.457Z,29.67
2019-02-09T09:43:39.851Z,38.73
2019-02-09T09:44:46.192Z,34.70
2019-02-09T09:45:52.505Z,32.75
2019-02-09T09:46:58.934Z,35.05
2019-02-09T09:48:06.077Z,35.68
2019-02-09T09:49:13.975Z,30.45
2019-02-09T09:50:21.604Z,27.58
2019-02-09T09:51:27.786Z,30.72
2019-02-09T09:52:34.114Z,30.45
2019-02-09T09:53:40.332Z,27.87
2019-02-09T09:54:46.703Z,28.65
2019-02-09T09:55:53.046Z,29.48
2019-02-09T09:56:59.307Z,29.60
2019-02-09T09:58:06.574Z,28.85
2019-02-09T09:59:16.413Z,31.27
2019-02-09T10:00:23.254Z,34.53
2019-02-09T10:01:30.751Z,29.30
2019-02-09T10:02:36.956Z,31.00
2019-02-09T10:03:43.152Z,27.95
2019-02-09T10:04:49.411Z,30.27
2019-02-09T10:05:55.880Z,30.97
2019-02-09T10:07:02.254Z,29.02
2019-02-09T10:08:09.444Z,28.57
2019-02-09T10:09:15.671Z,29.67
2019-02-09T10:10:23.147Z,30.00
2019-02-09T10:11:29.522Z,29.42
2019-02-09T10:12:35.901Z,29.30
2019-02-09T10:13:42.308Z,30.30
2019-02-09T10:14:48.457Z,29.90
2019-02-09T10:15:56.236Z,32.23
2019-02-09T10:17:02.576Z,31.33
2019-02-09T10:18:09.284Z,33.58
2019-02-09T10:19:15.643Z,26.45
2019-02-09T10:20:23.618Z,29.25
2019-02-09T10:21:30.005Z,27.98
2019-02-09T10:22:36.456Z,29.05
2019-02-09T10:23:45.329Z,27.17
2019-02-09T10:24:51.787Z,28.57
2019-02-09T10:25:57.820Z,26.57
2019-02-09T10:27:04.311Z,25.95
2019-02-09T10:28:10.934Z,28.70
2019-02-09T10:29:17.351Z,30.92
2019-02-09T10:30:25.665Z,32.42
2019-02-09T10:31:31.984Z,26.52
2019-02-09T10:32:44.269Z,25.57
2019-02-09T10:33:46.477Z,25.27
2019-02-09T10:34:53.060Z,27.07
2019-02-09T10:35:59.380Z,29.37
2019-02-09T10:37:05.843Z,27.67
2019-02-09T10:38:12.002Z,30.57
2019-02-09T10:39:18.739Z,31.37
2019-02-09T10:40:27.395Z,26.50
2019-02-09T10:41:34.999Z,28.47
2019-02-09T10:42:41.403Z,28.52
2019-02-09T10:43:48.350Z,29.18
2019-02-09T10:44:54.605Z,30.23
2019-02-09T10:46:01.072Z,31.70
2019-02-09T10:47:07.662Z,27.32
2019-02-09T10:48:14.085Z,31.02
2019-02-09T10:49:20.335Z,33.67
2019-02-09T10:50:31.839Z,25.05
2019-02-09T10:51:38.411Z,29.12
2019-02-09T10:52:44.724Z,26.68
2019-02-09T10:53:51.007Z,30.65
2019-02-09T10:54:57.447Z,29.35
2019-02-09T10:56:03.655Z,32.63
2019-02-09T10:57:10.242Z,32.73
2019-02-09T10:58:17.030Z,25.50
2019-02-09T10:59:23.522Z,28.23
2019-02-09T11:00:32.839Z,26.80
2019-02-09T11:01:39.370Z,32.73
2019-02-09T11:02:52.087Z,28.00
2019-02-09T11:03:53.677Z,32.60
2019-02-09T11:05:00.110Z,30.82
2019-02-09T11:06:06.733Z,25.50
2019-02-09T11:07:13.104Z,27.80
2019-02-09T11:08:19.471Z,26.77
2019-02-09T11:09:27.753Z,29.50
2019-02-09T11:10:34.215Z,27.52
2019-02-09T11:11:40.471Z,25.37
2019-02-09T11:12:47.095Z,27.20
2019-02-09T11:13:53.174Z,28.30
2019-02-09T11:14:59.432Z,31.30
2019-02-09T11:16:05.892Z,26.48
2019-02-09T11:17:12.245Z,29.35
2019-02-09T11:18:18.694Z,28.00
2019-02-09T11:19:25.104Z,27.40
2019-02-09T11:20:31.631Z,26.23
2019-02-09T11:21:37.855Z,29.75
2019-02-09T11:22:45.237Z,26.52
2019-02-09T11:23:51.528Z,29.18
2019-02-09T11:24:57.725Z,28.65
2019-02-09T11:26:04.006Z,29.32
2019-02-09T11:27:10.402Z,27.17
2019-02-09T11:28:17.095Z,29.02
2019-02-09T11:29:23.370Z,29.25
2019-02-09T11:30:30.193Z,29.95
2019-02-09T11:31:39.203Z,29.50
2019-02-09T11:32:45.617Z,30.52
2019-02-09T11:33:51.887Z,30.95
2019-02-09T11:34:58.661Z,37.40
2019-02-09T11:36:05.925Z,28.27
2019-02-09T11:37:12.763Z,33.78
2019-02-09T11:38:19.803Z,40.50
2019-02-09T11:39:26.304Z,28.40
2019-02-09T11:40:33.314Z,25.92
2019-02-09T11:41:39.840Z,26.30
2019-02-09T11:42:46.583Z,29.40
2019-02-09T11:43:53.179Z,30.02
2019-02-09T11:45:00.672Z,28.70
2019-02-09T11:46:08.031Z,28.67
2019-02-09T11:47:14.657Z,34.70
2019-02-09T11:48:22.157Z,29.82
2019-02-09T11:49:28.881Z,30.32
2019-02-09T11:50:36.202Z,30.37
2019-02-09T11:51:42.789Z,32.33
2019-02-09T11:52:50.049Z,31.77
2019-02-09T11:53:56.839Z,32.73
2019-02-09T11:55:04.974Z,33.30
2019-02-09T11:56:11.822Z,28.35
2019-02-09T11:57:18.656Z,30.00
2019-02-09T11:58:25.108Z,33.42
2019-02-09T11:59:31.814Z,27.02
2019-02-09T12:00:41.202Z,32.50
2019-02-09T12:01:47.719Z,32.03
2019-02-09T12:03:02.050Z,29.85
2019-02-09T12:04:02.842Z,30.75
2019-02-09T12:05:10.694Z,28.27
2019-02-09T12:06:18.189Z,33.18
2019-02-09T12:07:25.416Z,27.60
2019-02-09T12:08:32.123Z,30.50
2019-02-09T12:09:39.770Z,32.85
2019-02-09T12:10:46.380Z,34.67
2019-02-09T12:11:54.905Z,30.37
2019-02-09T12:13:02.025Z,30.52
2019-02-09T12:14:09.203Z,31.85
2019-02-09T12:15:19.363Z,38.23
2019-02-09T12:16:25.951Z,38.67
2019-02-09T12:17:33.368Z,36.23
2019-02-09T12:18:39.832Z,34.15
2019-02-09T12:19:47.833Z,39.60
2019-02-09T12:20:55.346Z,35.40
2019-02-09T12:22:04.054Z,35.23
2019-02-09T12:23:11.622Z,37.73
2019-02-09T12:24:19.381Z,33.18
2019-02-09T12:25:30.887Z,34.00
2019-02-09T12:26:37.536Z,37.38
2019-02-09T12:27:44.090Z,36.28
2019-02-09T12:28:51.363Z,35.10
2019-02-09T12:29:59.658Z,34.23
2019-02-09T12:31:06.659Z,33.48
2019-02-09T12:32:15.119Z,36.53
2019-02-09T12:33:23.425Z,33.28
2019-02-09T12:34:31.633Z,33.50
2019-02-09T12:35:39.692Z,30.92
2019-02-09T12:36:47.243Z,33.88
2019-02-09T12:37:54.361Z,35.98
2019-02-09T12:39:02.654Z,30.88
2019-02-09T12:40:11.711Z,29.80
2019-02-09T12:41:18.861Z,35.03
2019-02-09T12:42:25.821Z,35.03
2019-02-09T12:43:33.284Z,30.75
2019-02-09T12:44:40.322Z,33.42
2019-02-09T12:45:49.703Z,32.35
2019-02-09T12:46:58.039Z,33.02
2019-02-09T12:48:07.346Z,30.77
2019-02-09T12:49:14.663Z,31.37
2019-02-09T12:50:24.530Z,35.30
2019-02-09T12:51:31.758Z,34.50
2019-02-09T12:52:38.561Z,35.40
2019-02-09T12:53:47.341Z,36.00
2019-02-09T12:54:56.213Z,32.55
2019-02-09T12:56:04.215Z,33.08
2019-02-09T12:57:11.224Z,30.97
2019-02-09T12:58:18.312Z,37.70
2019-02-09T12:59:25.885Z,32.50
2019-02-09T13:00:35.027Z,32.75
2019-02-09T13:01:42.291Z,32.73
2019-02-09T13:02:49.270Z,34.78
2019-02-09T13:03:56.143Z,34.08
2019-02-09T13:05:02.755Z,33.02
2019-02-09T13:06:09.174Z,35.65
2019-02-09T13:07:17.260Z,39.95
2019-02-09T13:08:24.526Z,37.83
2019-02-09T13:09:32.956Z,38.65
2019-02-09T13:10:39.867Z,33.55
2019-02-09T13:11:46.585Z,39.30
2019-02-09T13:12:53.271Z,38.13
2019-02-09T13:14:00.454Z,40.48
2019-02-09T13:15:08.594Z,31.85
2019-02-09T13:16:15.992Z,34.83
2019-02-09T13:17:22.934Z,34.13
2019-02-09T13:18:29.222Z,34.48
2019-02-09T13:19:36.333Z,29.27
2019-02-09T13:20:44.322Z,33.13
2019-02-09T13:21:50.775Z,32.83
2019-02-09T13:22:58.274Z,34.48
2019-02-09T13:24:05.636Z,32.23
2019-02-09T13:25:12.397Z,34.48
2019-02-09T13:26:19.184Z,32.75
2019-02-09T13:27:25.924Z,35.40
2019-02-09T13:28:33.154Z,33.23
2019-02-09T13:29:39.367Z,32.23
2019-02-09T13:30:45.995Z,33.48
2019-02-09T13:31:52.842Z,33.48
2019-02-09T13:33:00.264Z,36.50
2019-02-09T13:34:08.152Z,36.08
2019-02-09T13:35:15.433Z,34.15
2019-02-09T13:36:22.356Z,30.43
2019-02-09T13:37:30.666Z,35.30
2019-02-09T13:38:38.202Z,30.90
2019-02-09T13:39:45.136Z,31.35
2019-02-09T13:40:51.851Z,36.95
2019-02-09T13:41:58.862Z,29.45
2019-02-09T13:43:06.194Z,32.60
2019-02-09T13:44:12.666Z,35.05
2019-02-09T13:45:27.752Z,33.78
2019-02-09T13:46:34.997Z,30.25
2019-02-09T13:47:52.695Z,30.25
2019-02-09T13:49:01.453Z,35.17
2019-02-09T13:50:12.490Z,33.65
2019-02-09T13:51:24.045Z,34.53
2019-02-09T13:52:31.019Z,35.70
2019-02-09T13:53:38.133Z,35.13
2019-02-09T13:54:45.331Z,29.77
2019-02-09T13:55:52.371Z,34.30
2019-02-09T13:57:01.198Z,34.23
2019-02-09T13:58:08.570Z,42.10
2019-02-09T13:59:15.557Z,34.43
2019-02-09T14:00:23.420Z,35.95
2019-02-09T14:01:30.773Z,34.60
2019-02-09T14:02:37.573Z,31.62
2019-02-09T14:03:46.829Z,32.50
2019-02-09T14:04:54.111Z,35.17
2019-02-09T14:06:08.016Z,34.75
2019-02-09T14:07:09.908Z,38.53
2019-02-09T14:08:17.111Z,39.63
2019-02-09T14:09:23.670Z,35.92
2019-02-09T14:10:30.594Z,40.45
2019-02-09T14:11:37.184Z,37.78
2019-02-09T14:12:43.600Z,35.10
2019-02-09T14:13:50.566Z,32.42
2019-02-09T14:14:58.188Z,36.05
2019-02-09T14:16:08.295Z,34.55
2019-02-09T14:17:14.088Z,34.83
2019-02-09T14:18:20.936Z,36.80
2019-02-09T14:19:28.101Z,35.60
2019-02-09T14:20:35.277Z,31.70